createdAt,value
2018-04-26T00:01:50.613Z,7.30
2018-04-26T00:04:17.347Z,7.30
2018-04-26T00:06:44.077Z,7.30
2018-04-26T00:09:11.039Z,7.30
2018-04-26T00:11:37.881Z,7.30
2018-04-26T00:14:04.723Z,7.30
2018-04-26T00:16:31.975Z,7.30
2018-04-26T00:18:58.628Z,7.30
2018-04-26T00:21:25.454Z,7.30
2018-04-26T00:23:52.398Z,7.30
2018-04-26T00:26:19.548Z,7.20
2018-04-26T00:28:46.390Z,7.20
2018-04-26T00:31:13.337Z,7.20
2018-04-26T00:33:40.054Z,7.50
2018-04-26T00:36:06.812Z,7.20
2018-04-26T00:38:33.658Z,7.10
2018-04-26T00:41:00.603Z,7.10
2018-04-26T00:43:27.446Z,7.00
2018-04-26T00:45:54.799Z,7.00
2018-04-26T00:48:21.456Z,6.90
2018-04-26T00:50:49.713Z,6.90
2018-04-26T00:53:16.433Z,6.90
2018-04-26T00:55:43.138Z,6.90
2018-04-26T00:58:10.859Z,6.80
2018-04-26T01:00:37.590Z,6.80
2018-04-26T01:03:04.322Z,6.80
2018-04-26T01:05:31.069Z,6.80
2018-04-26T01:07:57.750Z,6.80
2018-04-26T01:10:24.447Z,6.80
2018-04-26T01:12:51.300Z,6.80
2018-04-26T01:15:18.852Z,6.70
2018-04-26T01:17:45.694Z,6.70
2018-04-26T01:20:12.435Z,6.80
2018-04-26T01:22:39.483Z,6.70
2018-04-26T01:25:06.217Z,6.80
2018-04-26T01:27:33.064Z,6.80
2018-04-26T01:30:01.650Z,6.90
2018-04-26T01:32:29.300Z,7.00
2018-04-26T01:34:56.090Z,7.10
2018-04-26T01:37:35.072Z,7.00
2018-04-26T01:40:01.817Z,7.10
2018-04-26T01:42:28.761Z,7.20
2018-04-26T01:44:55.448Z,7.20
2018-04-26T01:47:22.650Z,7.30
2018-04-26T01:49:49.385Z,7.40
2018-04-26T01:52:16.334Z,7.40
2018-04-26T01:54:43.485Z,7.50
2018-04-26T01:57:10.225Z,7.60
2018-04-26T01:59:37.066Z,7.60
2018-04-26T02:02:03.889Z,7.70
2018-04-26T02:04:30.648Z,7.80
2018-04-26T02:06:57.494Z,7.90
2018-04-26T02:09:24.148Z,8.00
2018-04-26T02:11:50.817Z,8.00
2018-04-26T02:14:17.616Z,8.10
2018-04-26T02:16:44.248Z,8.10
2018-04-26T02:19:10.992Z,8.10
2018-04-26T02:21:37.726Z,8.10
2018-04-26T02:24:04.469Z,8.20
2018-04-26T02:26:31.309Z,8.20
2018-04-26T02:28:58.048Z,8.20
2018-04-26T02:31:24.997Z,8.20
2018-04-26T02:33:51.660Z,8.20
2018-04-26T02:36:18.303Z,8.20
2018-04-26T02:38:44.952Z,8.20
2018-04-26T02:41:11.718Z,8.20
2018-04-26T02:43:39.199Z,8.20
2018-04-26T02:46:06.148Z,8.20
2018-04-26T02:48:32.990Z,8.30
2018-04-26T02:50:59.622Z,8.30
2018-04-26T02:53:26.984Z,8.30
2018-04-26T02:55:53.661Z,8.30
2018-04-26T02:58:20.470Z,8.30
2018-04-26T03:00:47.157Z,8.30
2018-04-26T03:03:13.789Z,8.30
2018-04-26T03:05:40.550Z,8.20
2018-04-26T03:08:08.040Z,8.20
2018-04-26T03:10:34.882Z,8.20
2018-04-26T03:13:01.720Z,8.20
2018-04-26T03:15:28.371Z,8.20
2018-04-26T03:17:55.001Z,8.20
2018-04-26T03:20:22.145Z,8.10
2018-04-26T03:22:49.293Z,8.20
2018-04-26T03:25:16.038Z,8.10
2018-04-26T03:27:42.697Z,8.10
2018-04-26T03:30:09.329Z,8.10
2018-04-26T03:32:36.254Z,8.10
2018-04-26T03:35:03.506Z,8.10
2018-04-26T03:37:30.172Z,8.00
2018-04-26T03:39:58.521Z,8.00
2018-04-26T03:42:25.257Z,8.00
2018-04-26T03:44:52.104Z,8.00
2018-04-26T03:47:18.740Z,8.00
2018-04-26T03:49:45.432Z,8.00
2018-04-26T03:52:12.104Z,8.00
2018-04-26T03:54:38.858Z,7.90
2018-04-26T03:57:05.701Z,7.90
2018-04-26T03:59:45.091Z,7.90
2018-04-26T04:05:25.385Z,7.80
2018-04-26T04:07:52.871Z,7.70
2018-04-26T04:10:19.715Z,7.70
2018-04-26T04:12:46.450Z,7.60
2018-04-26T04:15:13.309Z,7.60
2018-04-26T04:17:40.138Z,7.60
2018-04-26T04:20:06.875Z,7.60
2018-04-26T04:22:33.722Z,7.50
2018-04-26T04:25:00.460Z,7.50
2018-04-26T04:27:27.406Z,7.40
2018-04-26T04:29:54.146Z,7.40
2018-04-26T04:32:20.887Z,7.30
2018-04-26T04:34:47.565Z,7.30
2018-04-26T04:37:14.365Z,7.20
2018-04-26T04:39:41.209Z,7.20
2018-04-26T04:42:08.050Z,7.10
2018-04-26T04:44:34.709Z,7.10
2018-04-26T04:47:01.427Z,7.10
2018-04-26T04:49:28.084Z,7.10
2018-04-26T04:51:54.907Z,7.00
2018-04-26T04:54:21.650Z,7.00
2018-04-26T04:56:48.382Z,7.00
2018-04-26T04:59:15.046Z,6.90
2018-04-26T05:01:41.867Z,6.90
2018-04-26T05:04:08.705Z,6.90
2018-04-26T05:06:35.361Z,6.90
2018-04-26T05:09:02.189Z,6.80
2018-04-26T05:11:29.032Z,6.90
2018-04-26T05:13:55.873Z,6.90
2018-04-26T05:16:22.612Z,6.90
2018-04-26T05:18:49.267Z,6.90
2018-04-26T05:21:15.991Z,7.00
2018-04-26T05:23:42.831Z,7.00
2018-04-26T05:26:09.575Z,7.10
2018-04-26T05:28:36.468Z,7.10
2018-04-26T05:31:03.228Z,7.10
2018-04-26T05:33:29.914Z,7.10
2018-04-26T05:35:56.737Z,7.20
2018-04-26T05:38:23.681Z,7.20
2018-04-26T05:40:50.518Z,7.20
2018-04-26T05:43:17.168Z,7.20
2018-04-26T05:45:43.901Z,7.20
2018-04-26T05:48:10.743Z,7.20
2018-04-26T05:50:37.688Z,7.20
2018-04-26T05:53:04.438Z,7.20
2018-04-26T05:55:31.140Z,7.30
2018-04-26T05:57:57.780Z,7.40
2018-04-26T06:00:24.445Z,7.40
2018-04-26T06:02:51.142Z,7.50
2018-04-26T06:05:18.746Z,7.60
2018-04-26T06:07:45.576Z,7.50
2018-04-26T06:10:12.248Z,7.60
2018-04-26T06:12:38.916Z,7.70
2018-04-26T06:15:05.704Z,7.70
2018-04-26T06:17:32.400Z,7.80
2018-04-26T06:19:59.902Z,8.00
2018-04-26T06:22:26.558Z,8.00
2018-04-26T06:24:53.233Z,8.10
2018-04-26T06:27:19.916Z,8.20
2018-04-26T06:29:46.860Z,8.30
2018-04-26T06:32:13.703Z,8.30
2018-04-26T06:34:40.540Z,8.30
2018-04-26T06:37:07.387Z,8.30
2018-04-26T06:39:34.058Z,8.30
2018-04-26T06:42:01.154Z,8.30
2018-04-26T06:44:27.911Z,8.20
2018-04-26T06:46:54.755Z,8.30
2018-04-26T06:49:21.497Z,8.30
2018-04-26T06:51:48.333Z,8.30
2018-04-26T06:54:15.077Z,8.20
2018-04-26T06:56:41.813Z,8.20
2018-04-26T06:59:08.467Z,8.20
2018-04-26T07:01:35.128Z,8.20
2018-04-26T07:04:01.763Z,8.30
2018-04-26T07:06:28.469Z,8.30
2018-04-26T07:08:55.090Z,8.30
2018-04-26T07:11:21.725Z,8.40
2018-04-26T07:13:48.392Z,8.50
2018-04-26T07:16:15.028Z,8.60
2018-04-26T07:18:42.095Z,8.70
2018-04-26T07:21:08.729Z,8.80
2018-04-26T07:23:35.521Z,8.80
2018-04-26T07:26:02.241Z,8.90
2018-04-26T07:28:28.918Z,8.80
2018-04-26T07:30:55.589Z,8.80
2018-04-26T07:33:22.264Z,8.80
2018-04-26T07:35:49.728Z,8.80
2018-04-26T07:38:16.420Z,8.80
2018-04-26T07:40:43.062Z,8.80
2018-04-26T07:43:09.742Z,8.90
2018-04-26T07:45:37.129Z,8.90
2018-04-26T07:48:03.851Z,8.90
2018-04-26T07:50:30.543Z,9.00
2018-04-26T07:52:58.048Z,9.30
2018-04-26T07:55:24.795Z,9.30
2018-04-26T07:57:51.440Z,9.50
2018-04-26T08:00:18.066Z,9.60
2018-04-26T08:02:44.716Z,9.60
2018-04-26T08:05:11.338Z,9.50
2018-04-26T08:07:38.085Z,9.50
2018-04-26T08:10:04.793Z,9.50
2018-04-26T08:12:32.198Z,9.50
2018-04-26T08:14:59.359Z,9.50
2018-04-26T08:17:25.987Z,9.50
2018-04-26T08:19:52.707Z,9.50
2018-04-26T08:22:19.371Z,9.60
2018-04-26T08:24:46.057Z,9.80
2018-04-26T08:27:13.669Z,10.00
2018-04-26T08:29:40.352Z,10.00
2018-04-26T08:32:07.724Z,10.70
2018-04-26T08:34:34.707Z,10.70
2018-04-26T08:37:01.542Z,10.90
2018-04-26T08:39:28.263Z,11.00
2018-04-26T08:41:55.924Z,10.90
2018-04-26T08:44:22.753Z,10.80
2018-04-26T08:46:49.711Z,10.70
2018-04-26T08:49:17.173Z,10.60
2018-04-26T08:51:43.962Z,10.50
2018-04-26T08:54:11.555Z,10.20
2018-04-26T08:56:39.198Z,10.20
2018-04-26T08:59:06.597Z,10.30
2018-04-26T09:01:33.290Z,10.20
2018-04-26T09:04:00.713Z,10.20
2018-04-26T09:06:27.341Z,10.20
2018-04-26T09:08:54.271Z,10.30
2018-04-26T09:11:20.990Z,10.40
2018-04-26T09:13:48.110Z,10.40
2018-04-26T09:16:15.611Z,10.50
2018-04-26T09:18:42.230Z,10.50
2018-04-26T09:21:09.100Z,10.70
2018-04-26T09:23:35.757Z,11.10
2018-04-26T09:26:02.504Z,11.80
2018-04-26T09:28:29.165Z,12.40
2018-04-26T09:30:56.587Z,12.80
2018-04-26T09:33:23.277Z,12.70
2018-04-26T09:35:50.661Z,13.40
2018-04-26T09:38:17.393Z,13.40
2018-04-26T09:40:44.071Z,13.70
2018-04-26T09:43:10.730Z,13.80
2018-04-26T09:45:37.419Z,14.00
2018-04-26T09:48:04.097Z,14.10
2018-04-26T09:50:32.213Z,14.10
2018-04-26T09:52:58.885Z,14.10
2018-04-26T09:55:25.551Z,13.90
2018-04-26T09:57:53.185Z,13.20
2018-04-26T10:00:25.811Z,13.20
2018-04-26T10:02:54.192Z,12.70
2018-04-26T10:05:29.885Z,12.90
2018-04-26T10:07:56.573Z,12.90
2018-04-26T10:10:23.986Z,13.40
2018-04-26T10:12:50.603Z,13.40
2018-04-26T10:15:17.417Z,13.40
2018-04-26T10:17:44.100Z,13.40
2018-04-26T10:20:10.722Z,13.90
2018-04-26T10:22:37.411Z,14.40
2018-04-26T10:25:04.831Z,15.00
2018-04-26T10:27:31.883Z,15.00
2018-04-26T10:29:58.726Z,14.90
2018-04-26T10:32:25.413Z,14.90
2018-04-26T10:34:52.892Z,14.70
2018-04-26T10:37:19.543Z,14.70
2018-04-26T10:39:46.192Z,14.60
2018-04-26T10:42:13.034Z,14.40
2018-04-26T10:44:40.752Z,14.20
2018-04-26T10:47:08.191Z,13.90
2018-04-26T10:49:34.886Z,13.90
2018-04-26T10:52:01.530Z,13.40
2018-04-26T10:54:28.187Z,13.10
2018-04-26T10:56:54.841Z,12.70
2018-04-26T10:59:21.506Z,12.40
2018-04-26T11:01:48.878Z,12.20
2018-04-26T11:04:15.539Z,12.20
2018-04-26T11:06:42.223Z,12.50
2018-04-26T11:09:09.653Z,13.10
2018-04-26T11:11:36.410Z,13.00
2018-04-26T11:14:03.039Z,13.20
2018-04-26T11:16:29.681Z,13.60
2018-04-26T11:18:56.345Z,13.90
2018-04-26T11:21:23.044Z,14.30
2018-04-26T11:23:49.735Z,14.40
2018-04-26T11:26:16.598Z,14.40
2018-04-26T11:28:43.232Z,14.30
2018-04-26T11:31:09.895Z,14.10
2018-04-26T11:33:36.562Z,13.90
2018-04-26T11:36:03.445Z,13.70
2018-04-26T11:38:30.125Z,13.30
2018-04-26T11:40:56.787Z,12.70
2018-04-26T11:43:24.201Z,12.20
2018-04-26T11:45:50.835Z,12.20
2018-04-26T11:48:17.544Z,12.50
2018-04-26T11:50:44.131Z,12.90
2018-04-26T11:53:10.758Z,13.20
2018-04-26T11:55:37.563Z,13.60
2018-04-26T11:58:04.197Z,13.80
2018-04-26T12:00:30.841Z,14.10
2018-04-26T12:02:57.493Z,14.50
2018-04-26T12:05:24.115Z,14.80
2018-04-26T12:07:50.799Z,15.10
2018-04-26T12:10:18.193Z,15.40
2018-04-26T12:12:45.255Z,15.30
2018-04-26T12:15:11.886Z,15.40
2018-04-26T12:17:38.518Z,15.80
2018-04-26T12:20:05.175Z,16.00
2018-04-26T12:22:31.801Z,16.10
2018-04-26T12:24:58.429Z,16.00
2018-04-26T12:27:25.060Z,15.90
2018-04-26T12:29:52.666Z,15.70
2018-04-26T12:32:19.377Z,15.70
2018-04-26T12:34:45.990Z,15.60
2018-04-26T12:37:13.398Z,15.40
2018-04-26T12:39:40.059Z,15.30
2018-04-26T12:42:06.794Z,15.10
2018-04-26T12:44:33.403Z,15.00
2018-04-26T12:47:00.058Z,15.10
2018-04-26T12:49:26.677Z,15.40
2018-04-26T12:51:53.358Z,15.70
2018-04-26T12:54:20.751Z,15.80
2018-04-26T12:56:47.420Z,15.80
2018-04-26T12:59:14.077Z,15.60
2018-04-26T13:01:40.733Z,15.40
2018-04-26T13:04:08.125Z,14.70
2018-04-26T13:06:34.765Z,14.60
2018-04-26T13:09:01.579Z,14.10
2018-04-26T13:11:28.231Z,13.50
2018-04-26T13:13:55.611Z,12.40
2018-04-26T13:16:22.244Z,12.40
2018-04-26T13:18:48.968Z,12.10
2018-04-26T13:21:15.662Z,11.70
2018-04-26T13:23:42.368Z,11.20
2018-04-26T13:26:09.006Z,10.80
2018-04-26T13:28:35.649Z,10.50
2018-04-26T13:31:02.297Z,10.30
2018-04-26T13:33:28.955Z,10.50
2018-04-26T13:38:27.832Z,11.40
2018-04-26T13:40:54.524Z,11.70
2018-04-26T13:43:21.211Z,12.00
2018-04-26T13:45:47.914Z,12.20
2018-04-26T13:48:14.650Z,12.40
2018-04-26T13:50:41.319Z,12.50
2018-04-26T13:53:07.949Z,12.60
2018-04-26T13:55:34.590Z,13.00
2018-04-26T13:58:01.334Z,13.10
2018-04-26T14:00:27.970Z,13.10
2018-04-26T14:02:54.654Z,13.00
2018-04-26T14:05:22.062Z,12.80
2018-04-26T14:07:48.728Z,12.80
2018-04-26T14:10:15.421Z,12.70
2018-04-26T14:12:42.125Z,12.50
2018-04-26T14:15:08.807Z,12.30
2018-04-26T14:17:35.450Z,12.10
2018-04-26T14:20:02.140Z,12.10
2018-04-26T14:22:28.888Z,12.20
2018-04-26T14:24:55.554Z,12.40
2018-04-26T14:27:22.221Z,12.70
2018-04-26T14:29:48.914Z,13.00
2018-04-26T14:32:16.287Z,13.20
2018-04-26T14:34:42.967Z,13.20
2018-04-26T14:37:09.714Z,13.20
2018-04-26T14:39:37.014Z,13.10
2018-04-26T14:42:04.455Z,13.00
2018-04-26T14:44:31.818Z,12.80
2018-04-26T14:46:58.447Z,12.80
2018-04-26T14:49:25.837Z,12.50
2018-04-26T14:51:52.454Z,12.50
2018-04-26T14:54:19.169Z,12.30
2018-04-26T14:56:46.532Z,11.70
2018-04-26T14:59:13.915Z,11.40
2018-04-26T15:01:40.646Z,11.40
2018-04-26T15:04:07.323Z,11.20
2018-04-26T15:06:33.961Z,11.00
2018-04-26T15:09:00.574Z,11.20
2018-04-26T15:11:27.211Z,11.50
2018-04-26T15:13:53.935Z,11.80
2018-04-26T15:16:20.643Z,11.90
2018-04-26T15:18:47.254Z,12.00
2018-04-26T15:21:13.926Z,12.10
2018-04-26T15:23:41.304Z,12.30
2018-04-26T15:26:07.966Z,12.30
2018-04-26T15:28:34.600Z,12.50
2018-04-26T15:31:01.450Z,12.70
2018-04-26T15:33:28.110Z,12.80
2018-04-26T15:35:54.779Z,12.90
2018-04-26T15:38:21.476Z,13.00
2018-04-26T15:40:48.245Z,13.00
2018-04-26T15:43:15.126Z,13.00
2018-04-26T15:45:41.778Z,13.00
2018-04-26T15:48:08.429Z,13.00
2018-04-26T15:50:51.279Z,12.90
2018-04-26T15:53:30.284Z,12.80
2018-04-26T15:56:09.901Z,12.80
2018-04-26T16:02:18.835Z,12.80
2018-04-26T16:04:57.525Z,12.80
2018-04-26T16:07:54.338Z,12.70
2018-04-26T16:13:30.305Z,12.50
2018-04-26T16:16:15.838Z,12.40
2018-04-26T16:18:53.731Z,12.40
2018-04-26T16:21:33.652Z,12.30
2018-04-26T16:24:32.439Z,12.20
2018-04-26T16:27:20.590Z,12.00
2018-04-26T16:29:59.445Z,12.00
2018-04-26T16:32:38.181Z,11.80
2018-04-26T16:35:20.049Z,11.80
2018-04-26T16:38:06.651Z,11.80
2018-04-26T16:40:33.252Z,11.80
2018-04-26T16:43:00.015Z,11.80
2018-04-26T16:45:26.701Z,11.90
2018-04-26T16:47:53.367Z,12.00
2018-04-26T16:50:20.214Z,12.00
2018-04-26T16:52:46.858Z,12.10
2018-04-26T16:55:13.516Z,12.10
2018-04-26T16:57:41.016Z,12.10
2018-04-26T17:00:07.679Z,12.20
2018-04-26T17:02:34.341Z,12.10
2018-04-26T17:05:00.979Z,12.10
2018-04-26T17:07:27.668Z,12.10
2018-04-26T17:09:54.370Z,12.00
2018-04-26T17:12:21.482Z,11.90
2018-04-26T17:14:48.133Z,11.80
2018-04-26T17:17:14.797Z,11.80
2018-04-26T17:19:42.253Z,11.60
2018-04-26T17:22:09.333Z,11.60
2018-04-26T17:24:36.789Z,11.50
2018-04-26T17:27:03.938Z,11.50
2018-04-26T17:29:30.569Z,11.50
2018-04-26T17:31:57.415Z,11.40
2018-04-26T17:34:24.872Z,11.30
2018-04-26T17:36:52.027Z,11.30
2018-04-26T17:39:18.695Z,11.20
2018-04-26T17:41:45.811Z,11.10
2018-04-26T17:44:12.509Z,11.00
2018-04-26T17:46:40.218Z,10.60
2018-04-26T17:49:06.914Z,10.60
2018-04-26T17:51:34.343Z,10.30
2018-04-26T17:54:01.275Z,10.30
2018-04-26T17:56:27.906Z,10.20
2018-04-26T17:58:55.039Z,10.10
2018-04-26T18:01:22.119Z,10.00
2018-04-26T18:03:49.235Z,10.00
2018-04-26T18:06:15.871Z,9.90
2018-04-26T18:08:42.556Z,9.90
2018-04-26T18:11:09.194Z,9.80
2018-04-26T18:13:36.158Z,9.80
2018-04-26T18:16:03.753Z,9.70
2018-04-26T18:18:31.016Z,9.70
2018-04-26T18:20:57.848Z,9.70
2018-04-26T18:23:26.629Z,9.70
2018-04-26T18:25:53.680Z,9.70
2018-04-26T18:28:20.365Z,9.60
2018-04-26T18:30:48.517Z,9.60
2018-04-26T18:33:15.333Z,9.60
2018-04-26T18:35:42.838Z,9.60
2018-04-26T18:38:10.558Z,9.60
2018-04-26T18:40:37.239Z,9.50
2018-04-26T18:43:04.445Z,9.50
2018-04-26T18:45:31.726Z,9.50
2018-04-26T18:47:58.549Z,9.50
2018-04-26T18:50:32.208Z,9.50
2018-04-26T18:52:59.653Z,9.40
2018-04-26T18:55:26.350Z,9.40
2018-04-26T18:57:53.034Z,9.30
2018-04-26T19:00:19.703Z,9.30
2018-04-26T19:02:46.375Z,9.20
2018-04-26T19:05:12.992Z,9.20
2018-04-26T19:07:40.138Z,9.10
2018-04-26T19:10:06.904Z,9.10
2018-04-26T19:12:33.502Z,9.10
2018-04-26T19:15:00.913Z,9.00
2018-04-26T19:17:27.597Z,9.00
2018-04-26T19:19:54.478Z,9.00
2018-04-26T19:22:21.121Z,9.00
2018-04-26T19:24:47.775Z,9.00
2018-04-26T19:27:14.449Z,9.00
2018-04-26T19:29:41.828Z,8.90
2018-04-26T19:32:08.517Z,8.90
2018-04-26T19:34:35.161Z,9.00
2018-04-26T19:37:01.909Z,9.00
2018-04-26T19:39:28.589Z,8.90
2018-04-26T19:41:55.248Z,9.00
2018-04-26T19:44:21.942Z,8.90
2018-04-26T19:46:48.588Z,8.90
2018-04-26T19:49:15.332Z,8.90
2018-04-26T19:51:41.969Z,8.80
2018-04-26T19:54:08.640Z,8.70
2018-04-26T19:56:35.288Z,8.60
2018-04-26T19:59:01.927Z,8.50
2018-04-26T20:01:28.629Z,8.40
2018-04-26T20:03:55.295Z,8.40
2018-04-26T20:06:21.971Z,8.30
2018-04-26T20:08:49.415Z,8.20
2018-04-26T20:11:16.053Z,8.20
2018-04-26T20:13:43.583Z,8.10
2018-04-26T20:16:10.215Z,8.00
2018-04-26T20:18:36.848Z,8.00
2018-04-26T20:21:03.748Z,7.90
2018-04-26T20:23:30.353Z,7.90
2018-04-26T20:25:57.006Z,7.90
2018-04-26T20:28:24.621Z,7.80
2018-04-26T20:30:51.650Z,7.80
2018-04-26T20:33:19.209Z,7.70
2018-04-26T20:35:45.864Z,7.70
2018-04-26T20:38:12.828Z,7.70
2018-04-26T20:40:39.492Z,7.70
2018-04-26T20:43:06.432Z,7.70
2018-04-26T20:45:33.033Z,7.70
2018-04-26T20:47:59.922Z,7.70
2018-04-26T20:50:26.597Z,7.60
2018-04-26T20:52:53.257Z,7.60
2018-04-26T20:55:19.938Z,7.60
2018-04-26T20:57:47.396Z,7.60
2018-04-26T21:00:14.767Z,7.60
2018-04-26T21:02:41.428Z,7.50
2018-04-26T21:05:08.069Z,7.50
2018-04-26T21:07:35.115Z,7.50
2018-04-26T21:10:01.853Z,7.50
2018-04-26T21:12:29.178Z,7.30
2018-04-26T21:14:57.003Z,7.30
2018-04-26T21:17:25.127Z,7.20
2018-04-26T21:19:51.847Z,7.20
2018-04-26T21:22:19.248Z,7.10
2018-04-26T21:24:45.919Z,7.10
2018-04-26T21:27:14.027Z,7.00
2018-04-26T21:29:40.845Z,7.00
2018-04-26T21:32:07.591Z,7.00
2018-04-26T21:34:34.992Z,6.90
2018-04-26T21:37:01.679Z,6.90
2018-04-26T21:39:29.066Z,6.80
2018-04-26T21:41:56.007Z,6.80
2018-04-26T21:44:23.380Z,6.70
2018-04-26T21:46:50.023Z,6.70
2018-04-26T21:49:16.563Z,6.70
2018-04-26T21:51:49.190Z,6.60
2018-04-26T21:54:22.697Z,6.50
2018-04-26T21:56:55.534Z,6.50
2018-04-26T21:59:28.268Z,6.50
2018-04-26T22:02:01.687Z,6.40
2018-04-26T22:04:34.392Z,6.40
2018-04-26T22:07:01.202Z,6.40
2018-04-26T22:09:27.829Z,6.30
2018-04-26T22:11:54.502Z,6.30
2018-04-26T22:14:21.193Z,6.30
2018-04-26T22:16:47.864Z,6.30
2018-04-26T22:19:14.529Z,6.30
2018-04-26T22:21:41.219Z,6.20
2018-04-26T22:24:07.844Z,6.20
2018-04-26T22:26:34.577Z,6.20
2018-04-26T22:29:01.228Z,6.20
2018-04-26T22:31:27.902Z,6.20
2018-04-26T22:33:54.592Z,6.20
2018-04-26T22:36:22.206Z,6.20
2018-04-26T22:38:48.842Z,6.20
2018-04-26T22:41:15.511Z,6.20
2018-04-26T22:43:42.981Z,6.10
2018-04-26T22:46:09.685Z,6.10
2018-04-26T22:48:36.394Z,6.10
2018-04-26T22:51:03.096Z,6.10
2018-04-26T22:53:30.511Z,6.10
2018-04-26T22:55:57.168Z,6.00
2018-04-26T22:58:23.797Z,6.10
2018-04-26T23:00:50.457Z,6.10
2018-04-26T23:03:17.065Z,6.10
2018-04-26T23:05:43.896Z,6.10
2018-04-26T23:08:11.541Z,6.10
2018-04-26T23:10:38.162Z,6.10
2018-04-26T23:13:04.897Z,6.10
2018-04-26T23:15:31.542Z,6.00
2018-04-26T23:17:58.265Z,6.00
2018-04-26T23:20:25.638Z,6.00
2018-04-26T23:22:52.280Z,6.00
2018-04-26T23:25:19.363Z,6.00
2018-04-26T23:27:46.138Z,6.00
2018-04-26T23:30:12.825Z,5.90
2018-04-26T23:32:39.479Z,5.90
2018-04-26T23:35:06.126Z,5.90
2018-04-26T23:37:32.759Z,5.80
2018-04-26T23:39:59.429Z,5.80
2018-04-26T23:42:26.832Z,5.70
2018-04-26T23:44:53.547Z,5.70
2018-04-26T23:47:20.222Z,5.70
2018-04-26T23:49:47.016Z,5.70
2018-04-26T23:52:14.473Z,5.60
2018-04-26T23:54:41.899Z,5.60
2018-04-26T23:57:10.025Z,5.50
2018-04-26T23:59:36.684Z,5.50
